sensor_id;sensor_type;location;lat;lon;timestamp;P1;durP1;ratioP1;P2;durP2;ratioP2
26474;SDS011;14161;52.270;10.334;2022-11-10T00:02:13;4.15;;;1.50;;
26474;SDS011;14161;52.270;10.334;2022-11-10T00:04:57;8.77;;;1.83;;
26474;SDS011;14161;52.270;10.334;2022-11-10T00:07:40;6.05;;;1.65;;
26474;SDS011;14161;52.270;10.334;2022-11-10T00:10:24;4.23;;;1.40;;
26474;SDS011;14161;52.270;10.334;2022-11-10T00:13:08;5.33;;;1.40;;
26474;SDS011;14161;52.270;10.334;2022-11-10T00:15:52;2.97;;;1.50;;
26474;SDS011;14161;52.270;10.334;2022-11-10T00:18:55;5.97;;;1.40;;
26474;SDS011;14161;52.270;10.334;2022-11-10T00:21:39;4.65;;;1.30;;
26474;SDS011;14161;52.270;10.334;2022-11-10T00:24:23;5.78;;;1.10;;
26474;SDS011;14161;52.270;10.334;2022-11-10T00:27:07;7.45;;;1.73;;
26474;SDS011;14161;52.270;10.334;2022-11-10T00:29:51;6.10;;;1.87;;
26474;SDS011;14161;52.270;10.334;2022-11-10T00:32:35;6.17;;;1.23;;
26474;SDS011;14161;52.270;10.334;2022-11-10T00:35:19;6.82;;;1.77;;
26474;SDS011;14161;52.270;10.334;2022-11-10T00:38:03;8.37;;;1.83;;
26474;SDS011;14161;52.270;10.334;2022-11-10T00:40:47;6.28;;;1.90;;
26474;SDS011;14161;52.270;10.334;2022-11-10T00:43:31;8.30;;;1.93;;
26474;SDS011;14161;52.270;10.334;2022-11-10T00:46:15;11.73;;;1.70;;
26474;SDS011;14161;52.270;10.334;2022-11-10T00:48:59;5.38;;;1.92;;
26474;SDS011;14161;52.270;10.334;2022-11-10T00:51:43;6.93;;;1.80;;
26474;SDS011;14161;52.270;10.334;2022-11-10T00:54:27;5.10;;;1.77;;
26474;SDS011;14161;52.270;10.334;2022-11-10T00:57:11;6.03;;;2.03;;
26474;SDS011;14161;52.270;10.334;2022-11-10T00:59:55;3.92;;;1.15;;
26474;SDS011;14161;52.270;10.334;2022-11-10T01:02:39;5.53;;;1.73;;
26474;SDS011;14161;52.270;10.334;2022-11-10T01:05:23;4.77;;;1.33;;
26474;SDS011;14161;52.270;10.334;2022-11-10T01:08:07;7.55;;;1.60;;
26474;SDS011;14161;52.270;10.334;2022-11-10T01:10:52;2.78;;;1.30;;
26474;SDS011;14161;52.270;10.334;2022-11-10T01:13:44;6.18;;;1.98;;
26474;SDS011;14161;52.270;10.334;2022-11-10T01:16:29;5.97;;;1.45;;
26474;SDS011;14161;52.270;10.334;2022-11-10T01:19:14;8.52;;;1.55;;
26474;SDS011;14161;52.270;10.334;2022-11-10T01:21:58;6.50;;;1.80;;
26474;SDS011;14161;52.270;10.334;2022-11-10T01:24:43;8.45;;;1.95;;
26474;SDS011;14161;52.270;10.334;2022-11-10T01:27:27;5.90;;;1.67;;
26474;SDS011;14161;52.270;10.334;2022-11-10T01:30:11;3.70;;;1.40;;
26474;SDS011;14161;52.270;10.334;2022-11-10T01:32:55;6.70;;;2.03;;
26474;SDS011;14161;52.270;10.334;2022-11-10T01:35:39;6.70;;;1.80;;
26474;SDS011;14161;52.270;10.334;2022-11-10T01:38:25;7.95;;;1.90;;
26474;SDS011;14161;52.270;10.334;2022-11-10T01:41:11;6.53;;;2.70;;
26474;SDS011;14161;52.270;10.334;2022-11-10T01:44:18;3.97;;;1.67;;
26474;SDS011;14161;52.270;10.334;2022-11-10T01:47:04;8.10;;;2.35;;
26474;SDS011;14161;52.270;10.334;2022-11-10T01:49:48;9.17;;;2.87;;
26474;SDS011;14161;52.270;10.334;2022-11-10T01:52:32;8.30;;;2.55;;
26474;SDS011;14161;52.270;10.334;2022-11-10T01:55:16;8.10;;;2.17;;
26474;SDS011;14161;52.270;10.334;2022-11-10T01:58:00;6.35;;;2.10;;
26474;SDS011;14161;52.270;10.334;2022-11-10T02:00:44;6.25;;;2.20;;
26474;SDS011;14161;52.270;10.334;2022-11-10T02:03:39;5.50;;;2.00;;
26474;SDS011;14161;52.270;10.334;2022-11-10T02:06:28;9.18;;;2.80;;
26474;SDS011;14161;52.270;10.334;2022-11-10T02:09:14;11.40;;;2.53;;
26474;SDS011;14161;52.270;10.334;2022-11-10T02:11:58;12.02;;;2.85;;
26474;SDS011;14161;52.270;10.334;2022-11-10T02:14:42;4.10;;;1.80;;
26474;SDS011;14161;52.270;10.334;2022-11-10T02:17:26;6.23;;;1.83;;
26474;SDS011;14161;52.270;10.334;2022-11-10T02:20:11;8.55;;;2.90;;
26474;SDS011;14161;52.270;10.334;2022-11-10T02:22:57;7.43;;;2.53;;
26474;SDS011;14161;52.270;10.334;2022-11-10T02:25:41;8.73;;;2.50;;
26474;SDS011;14161;52.270;10.334;2022-11-10T02:28:25;7.20;;;2.47;;
26474;SDS011;14161;52.270;10.334;2022-11-10T02:31:09;10.30;;;2.42;;
26474;SDS011;14161;52.270;10.334;2022-11-10T02:33:53;6.82;;;2.50;;
26474;SDS011;14161;52.270;10.334;2022-11-10T02:36:37;5.18;;;2.10;;
26474;SDS011;14161;52.270;10.334;2022-11-10T02:39:21;8.13;;;3.08;;
26474;SDS011;14161;52.270;10.334;2022-11-10T02:42:05;5.70;;;2.08;;
26474;SDS011;14161;52.270;10.334;2022-11-10T02:44:52;5.43;;;2.13;;
26474;SDS011;14161;52.270;10.334;2022-11-10T02:47:36;4.87;;;2.37;;
26474;SDS011;14161;52.270;10.334;2022-11-10T02:50:20;8.57;;;2.60;;
26474;SDS011;14161;52.270;10.334;2022-11-10T02:53:04;9.77;;;2.90;;
26474;SDS011;14161;52.270;10.334;2022-11-10T02:55:49;7.57;;;2.30;;
26474;SDS011;14161;52.270;10.334;2022-11-10T02:58:32;4.43;;;2.30;;
26474;SDS011;14161;52.270;10.334;2022-11-10T03:01:16;11.13;;;2.65;;
26474;SDS011;14161;52.270;10.334;2022-11-10T03:04:00;6.97;;;2.67;;
26474;SDS011;14161;52.270;10.334;2022-11-10T03:06:44;11.18;;;2.80;;
26474;SDS011;14161;52.270;10.334;2022-11-10T03:09:28;7.03;;;2.40;;
26474;SDS011;14161;52.270;10.334;2022-11-10T03:12:12;8.57;;;2.63;;
26474;SDS011;14161;52.270;10.334;2022-11-10T03:14:56;4.68;;;2.17;;
26474;SDS011;14161;52.270;10.334;2022-11-10T03:17:40;6.40;;;2.17;;
26474;SDS011;14161;52.270;10.334;2022-11-10T03:20:25;4.90;;;1.83;;
26474;SDS011;14161;52.270;10.334;2022-11-10T03:23:09;4.80;;;1.80;;
26474;SDS011;14161;52.270;10.334;2022-11-10T03:25:53;4.25;;;1.80;;
26474;SDS011;14161;52.270;10.334;2022-11-10T03:28:37;5.83;;;2.30;;
26474;SDS011;14161;52.270;10.334;2022-11-10T03:31:21;8.93;;;1.97;;
26474;SDS011;14161;52.270;10.334;2022-11-10T03:34:05;7.97;;;2.43;;
26474;SDS011;14161;52.270;10.334;2022-11-10T03:36:49;4.43;;;2.07;;
26474;SDS011;14161;52.270;10.334;2022-11-10T03:39:33;5.30;;;1.90;;
26474;SDS011;14161;52.270;10.334;2022-11-10T03:42:17;5.78;;;2.13;;
26474;SDS011;14161;52.270;10.334;2022-11-10T03:45:01;3.97;;;1.87;;
26474;SDS011;14161;52.270;10.334;2022-11-10T03:47:48;3.53;;;1.73;;
26474;SDS011;14161;52.270;10.334;2022-11-10T03:50:32;6.78;;;2.30;;
26474;SDS011;14161;52.270;10.334;2022-11-10T03:53:16;7.57;;;2.57;;
26474;SDS011;14161;52.270;10.334;2022-11-10T03:56:01;8.68;;;2.58;;
26474;SDS011;14161;52.270;10.334;2022-11-10T03:58:46;8.50;;;2.38;;
26474;SDS011;14161;52.270;10.334;2022-11-10T04:01:30;4.30;;;2.20;;
26474;SDS011;14161;52.270;10.334;2022-11-10T04:04:14;2.97;;;1.87;;
26474;SDS011;14161;52.270;10.334;2022-11-10T04:07:16;5.50;;;2.08;;
26474;SDS011;14161;52.270;10.334;2022-11-10T04:10:19;3.47;;;2.00;;
26474;SDS011;14161;52.270;10.334;2022-11-10T04:13:03;4.70;;;2.00;;
26474;SDS011;14161;52.270;10.334;2022-11-10T04:16:06;6.50;;;2.40;;
26474;SDS011;14161;52.270;10.334;2022-11-10T04:18:50;3.90;;;1.77;;
26474;SDS011;14161;52.270;10.334;2022-11-10T04:21:34;7.22;;;3.22;;
26474;SDS011;14161;52.270;10.334;2022-11-10T04:24:19;5.20;;;2.03;;
26474;SDS011;14161;52.270;10.334;2022-11-10T04:27:03;7.50;;;2.83;;
26474;SDS011;14161;52.270;10.334;2022-11-10T04:29:47;11.07;;;3.77;;
26474;SDS011;14161;52.270;10.334;2022-11-10T04:32:31;8.93;;;3.07;;
26474;SDS011;14161;52.270;10.334;2022-11-10T04:35:15;7.40;;;3.00;;
26474;SDS011;14161;52.270;10.334;2022-11-10T04:37:59;7.63;;;2.85;;
26474;SDS011;14161;52.270;10.334;2022-11-10T04:40:43;11.97;;;3.40;;
26474;SDS011;14161;52.270;10.334;2022-11-10T04:43:27;7.50;;;2.50;;
26474;SDS011;14161;52.270;10.334;2022-11-10T04:46:17;8.00;;;2.97;;
26474;SDS011;14161;52.270;10.334;2022-11-10T04:49:04;5.10;;;2.55;;
26474;SDS011;14161;52.270;10.334;2022-11-10T04:51:49;6.65;;;2.88;;
26474;SDS011;14161;52.270;10.334;2022-11-10T04:54:33;11.23;;;3.60;;
26474;SDS011;14161;52.270;10.334;2022-11-10T04:57:17;8.98;;;3.50;;
26474;SDS011;14161;52.270;10.334;2022-11-10T05:00:01;13.50;;;4.28;;
26474;SDS011;14161;52.270;10.334;2022-11-10T05:02:46;8.40;;;3.50;;
26474;SDS011;14161;52.270;10.334;2022-11-10T05:05:30;10.43;;;3.53;;
26474;SDS011;14161;52.270;10.334;2022-11-10T05:08:14;11.07;;;3.73;;
26474;SDS011;14161;52.270;10.334;2022-11-10T05:10:58;7.17;;;3.40;;
26474;SDS011;14161;52.270;10.334;2022-11-10T05:13:42;11.77;;;3.90;;
26474;SDS011;14161;52.270;10.334;2022-11-10T05:16:27;9.27;;;3.97;;
26474;SDS011;14161;52.270;10.334;2022-11-10T05:19:11;11.23;;;4.07;;
26474;SDS011;14161;52.270;10.334;2022-11-10T05:21:55;8.87;;;3.87;;
26474;SDS011;14161;52.270;10.334;2022-11-10T05:24:39;14.77;;;3.90;;
26474;SDS011;14161;52.270;10.334;2022-11-10T05:27:22;5.80;;;3.00;;
26474;SDS011;14161;52.270;10.334;2022-11-10T05:30:07;10.75;;;4.00;;
26474;SDS011;14161;52.270;10.334;2022-11-10T05:32:51;10.48;;;3.60;;
26474;SDS011;14161;52.270;10.334;2022-11-10T05:35:35;7.20;;;2.97;;
26474;SDS011;14161;52.270;10.334;2022-11-10T05:38:19;6.80;;;3.28;;
26474;SDS011;14161;52.270;10.334;2022-11-10T05:41:03;12.40;;;4.60;;
26474;SDS011;14161;52.270;10.334;2022-11-10T05:43:47;7.07;;;3.50;;
26474;SDS011;14161;52.270;10.334;2022-11-10T05:46:31;12.32;;;4.38;;
26474;SDS011;14161;52.270;10.334;2022-11-10T05:49:15;9.60;;;3.60;;
26474;SDS011;14161;52.270;10.334;2022-11-10T05:51:59;10.60;;;3.57;;
26474;SDS011;14161;52.270;10.334;2022-11-10T05:54:43;13.20;;;4.40;;
26474;SDS011;14161;52.270;10.334;2022-11-10T05:57:27;7.72;;;3.38;;
26474;SDS011;14161;52.270;10.334;2022-11-10T06:00:12;12.15;;;4.63;;
26474;SDS011;14161;52.270;10.334;2022-11-10T06:02:58;13.30;;;4.90;;
26474;SDS011;14161;52.270;10.334;2022-11-10T06:05:49;14.75;;;4.40;;
26474;SDS011;14161;52.270;10.334;2022-11-10T06:08:33;9.27;;;4.03;;
26474;SDS011;14161;52.270;10.334;2022-11-10T06:11:17;8.38;;;3.70;;
26474;SDS011;14161;52.270;10.334;2022-11-10T06:14:03;7.68;;;3.85;;
26474;SDS011;14161;52.270;10.334;2022-11-10T06:16:47;12.55;;;4.22;;
26474;SDS011;14161;52.270;10.334;2022-11-10T06:19:31;8.53;;;3.87;;
26474;SDS011;14161;52.270;10.334;2022-11-10T06:22:15;11.83;;;3.83;;
26474;SDS011;14161;52.270;10.334;2022-11-10T06:24:59;6.15;;;3.00;;
26474;SDS011;14161;52.270;10.334;2022-11-10T06:27:43;6.17;;;3.43;;
26474;SDS011;14161;52.270;10.334;2022-11-10T06:30:28;11.05;;;3.83;;
26474;SDS011;14161;52.270;10.334;2022-11-10T06:33:13;8.70;;;3.55;;
26474;SDS011;14161;52.270;10.334;2022-11-10T06:35:57;7.57;;;3.00;;
26474;SDS011;14161;52.270;10.334;2022-11-10T06:38:41;4.87;;;2.83;;
26474;SDS011;14161;52.270;10.334;2022-11-10T06:41:25;13.77;;;3.75;;
26474;SDS011;14161;52.270;10.334;2022-11-10T06:44:09;6.70;;;3.40;;
26474;SDS011;14161;52.270;10.334;2022-11-10T06:46:54;8.25;;;3.58;;
26474;SDS011;14161;52.270;10.334;2022-11-10T06:49:38;6.55;;;3.20;;
26474;SDS011;14161;52.270;10.334;2022-11-10T06:52:22;5.95;;;3.28;;
26474;SDS011;14161;52.270;10.334;2022-11-10T06:55:06;12.30;;;4.20;;
26474;SDS011;14161;52.270;10.334;2022-11-10T06:57:50;6.30;;;2.83;;
26474;SDS011;14161;52.270;10.334;2022-11-10T07:00:34;7.87;;;3.00;;
26474;SDS011;14161;52.270;10.334;2022-11-10T07:03:19;9.50;;;3.45;;
26474;SDS011;14161;52.270;10.334;2022-11-10T07:06:03;6.53;;;3.28;;
26474;SDS011;14161;52.270;10.334;2022-11-10T07:08:47;8.57;;;3.28;;
26474;SDS011;14161;52.270;10.334;2022-11-10T07:11:31;15.33;;;3.83;;
26474;SDS011;14161;52.270;10.334;2022-11-10T07:14:15;7.20;;;3.20;;
26474;SDS011;14161;52.270;10.334;2022-11-10T07:16:59;8.27;;;3.28;;
26474;SDS011;14161;52.270;10.334;2022-11-10T07:19:43;8.32;;;3.05;;
26474;SDS011;14161;52.270;10.334;2022-11-10T07:22:27;12.93;;;4.25;;
26474;SDS011;14161;52.270;10.334;2022-11-10T07:25:11;9.60;;;3.60;;
26474;SDS011;14161;52.270;10.334;2022-11-10T07:27:55;13.07;;;3.57;;
26474;SDS011;14161;52.270;10.334;2022-11-10T07:30:40;13.68;;;3.80;;
26474;SDS011;14161;52.270;10.334;2022-11-10T07:33:24;11.02;;;3.95;;
26474;SDS011;14161;52.270;10.334;2022-11-10T07:36:08;12.47;;;3.57;;
26474;SDS011;14161;52.270;10.334;2022-11-10T07:38:52;7.57;;;3.17;;
26474;SDS011;14161;52.270;10.334;2022-11-10T07:41:36;7.05;;;2.95;;
26474;SDS011;14161;52.270;10.334;2022-11-10T07:44:20;4.97;;;2.40;;
26474;SDS011;14161;52.270;10.334;2022-11-10T07:47:04;5.10;;;2.40;;
26474;SDS011;14161;52.270;10.334;2022-11-10T07:49:48;7.47;;;3.00;;
26474;SDS011;14161;52.270;10.334;2022-11-10T07:52:32;5.40;;;2.47;;
26474;SDS011;14161;52.270;10.334;2022-11-10T07:55:17;8.13;;;3.65;;
26474;SDS011;14161;52.270;10.334;2022-11-10T07:58:01;10.68;;;4.00;;
26474;SDS011;14161;52.270;10.334;2022-11-10T08:00:45;6.30;;;2.97;;
26474;SDS011;14161;52.270;10.334;2022-11-10T08:03:30;8.10;;;3.47;;
26474;SDS011;14161;52.270;10.334;2022-11-10T08:06:14;7.03;;;2.75;;
26474;SDS011;14161;52.270;10.334;2022-11-10T08:08:58;9.75;;;3.15;;
26474;SDS011;14161;52.270;10.334;2022-11-10T08:11:43;7.22;;;2.92;;
26474;SDS011;14161;52.270;10.334;2022-11-10T08:14:27;4.30;;;2.33;;
26474;SDS011;14161;52.270;10.334;2022-11-10T08:17:11;4.57;;;2.05;;
26474;SDS011;14161;52.270;10.334;2022-11-10T08:19:55;5.50;;;2.42;;
26474;SDS011;14161;52.270;10.334;2022-11-10T08:22:39;5.15;;;2.30;;
26474;SDS011;14161;52.270;10.334;2022-11-10T08:25:23;9.43;;;3.03;;
26474;SDS011;14161;52.270;10.334;2022-11-10T08:28:11;7.65;;;2.92;;
26474;SDS011;14161;52.270;10.334;2022-11-10T08:31:01;5.22;;;2.40;;
26474;SDS011;14161;52.270;10.334;2022-11-10T08:33:45;5.75;;;2.83;;
26474;SDS011;14161;52.270;10.334;2022-11-10T08:36:30;5.43;;;2.77;;
26474;SDS011;14161;52.270;10.334;2022-11-10T08:39:14;3.80;;;2.20;;
26474;SDS011;14161;52.270;10.334;2022-11-10T08:41:58;4.78;;;2.15;;
26474;SDS011;14161;52.270;10.334;2022-11-10T08:44:42;5.13;;;2.27;;
26474;SDS011;14161;52.270;10.334;2022-11-10T08:47:26;6.35;;;2.50;;
26474;SDS011;14161;52.270;10.334;2022-11-10T08:50:10;8.27;;;2.93;;
26474;SDS011;14161;52.270;10.334;2022-11-10T08:52:54;5.45;;;2.65;;
26474;SDS011;14161;52.270;10.334;2022-11-10T08:55:39;6.03;;;2.10;;
26474;SDS011;14161;52.270;10.334;2022-11-10T08:58:23;6.25;;;2.53;;
26474;SDS011;14161;52.270;10.334;2022-11-10T09:01:08;6.35;;;2.38;;
26474;SDS011;14161;52.270;10.334;2022-11-10T09:03:53;4.75;;;2.22;;
26474;SDS011;14161;52.270;10.334;2022-11-10T09:06:36;8.07;;;2.22;;
26474;SDS011;14161;52.270;10.334;2022-11-10T09:09:20;4.78;;;2.25;;
26474;SDS011;14161;52.270;10.334;2022-11-10T09:12:04;3.13;;;1.60;;
26474;SDS011;14161;52.270;10.334;2022-11-10T09:14:48;7.67;;;2.33;;
26474;SDS011;14161;52.270;10.334;2022-11-10T09:17:32;5.80;;;1.90;;
26474;SDS011;14161;52.270;10.334;2022-11-10T09:20:16;9.47;;;2.37;;
26474;SDS011;14161;52.270;10.334;2022-11-10T09:23:07;6.75;;;2.38;;
26474;SDS011;14161;52.270;10.334;2022-11-10T09:25:55;10.25;;;2.65;;
26474;SDS011;14161;52.270;10.334;2022-11-10T09:28:39;12.70;;;3.38;;
26474;SDS011;14161;52.270;10.334;2022-11-10T09:31:23;7.93;;;2.75;;
26474;SDS011;14161;52.270;10.334;2022-11-10T09:34:08;6.63;;;2.55;;
26474;SDS011;14161;52.270;10.334;2022-11-10T09:36:52;8.73;;;2.53;;
26474;SDS011;14161;52.270;10.334;2022-11-10T09:39:36;16.03;;;3.83;;
26474;SDS011;14161;52.270;10.334;2022-11-10T09:42:36;8.27;;;2.33;;
26474;SDS011;14161;52.270;10.334;2022-11-10T09:45:27;8.57;;;2.67;;
26474;SDS011;14161;52.270;10.334;2022-11-10T09:48:32;10.43;;;3.00;;
26474;SDS011;14161;52.270;10.334;2022-11-10T09:51:24;7.43;;;2.28;;
26474;SDS011;14161;52.270;10.334;2022-11-10T09:54:25;14.35;;;2.88;;
26474;SDS011;14161;52.270;10.334;2022-11-10T09:57:16;7.78;;;2.60;;
26474;SDS011;14161;52.270;10.334;2022-11-10T10:00:03;11.75;;;2.78;;
26474;SDS011;14161;52.270;10.334;2022-11-10T10:02:49;14.30;;;2.65;;
26474;SDS011;14161;52.270;10.334;2022-11-10T10:06:10;12.60;;;2.70;;
26474;SDS011;14161;52.270;10.334;2022-11-10T10:08:58;9.82;;;2.38;;
26474;SDS011;14161;52.270;10.334;2022-11-10T10:15:27;15.45;;;2.67;;
26474;SDS011;14161;52.270;10.334;2022-11-10T10:23:54;10.93;;;2.17;;
26474;SDS011;14161;52.270;10.334;2022-11-10T10:26:46;7.15;;;2.50;;
26474;SDS011;14161;52.270;10.334;2022-11-10T10:29:38;8.55;;;2.70;;
26474;SDS011;14161;52.270;10.334;2022-11-10T10:32:24;6.47;;;1.80;;
26474;SDS011;14161;52.270;10.334;2022-11-10T10:35:13;7.85;;;2.45;;
26474;SDS011;14161;52.270;10.334;2022-11-10T10:37:58;10.18;;;2.08;;
26474;SDS011;14161;52.270;10.334;2022-11-10T10:40:43;7.60;;;2.50;;
26474;SDS011;14161;52.270;10.334;2022-11-10T10:43:27;7.20;;;1.98;;
26474;SDS011;14161;52.270;10.334;2022-11-10T10:46:12;7.23;;;2.00;;
26474;SDS011;14161;52.270;10.334;2022-11-10T10:52:14;9.60;;;2.25;;
26474;SDS011;14161;52.270;10.334;2022-11-10T10:55:00;8.18;;;1.95;;
26474;SDS011;14161;52.270;10.334;2022-11-10T10:57:49;8.93;;;2.05;;
26474;SDS011;14161;52.270;10.334;2022-11-10T11:00:41;8.75;;;2.08;;
26474;SDS011;14161;52.270;10.334;2022-11-10T11:03:28;11.52;;;3.10;;
26474;SDS011;14161;52.270;10.334;2022-11-10T11:11:42;10.30;;;2.13;;
26474;SDS011;14161;52.270;10.334;2022-11-10T11:14:28;10.52;;;2.28;;
26474;SDS011;14161;52.270;10.334;2022-11-10T11:17:16;16.27;;;2.70;;
26474;SDS011;14161;52.270;10.334;2022-11-10T11:20:02;6.43;;;1.73;;
26474;SDS011;14161;52.270;10.334;2022-11-10T11:22:49;11.60;;;2.05;;
26474;SDS011;14161;52.270;10.334;2022-11-10T11:25:36;9.48;;;1.95;;
26474;SDS011;14161;52.270;10.334;2022-11-10T11:28:27;5.75;;;1.30;;
26474;SDS011;14161;52.270;10.334;2022-11-10T11:31:41;7.07;;;1.92;;
26474;SDS011;14161;52.270;10.334;2022-11-10T11:34:35;3.75;;;1.17;;
26474;SDS011;14161;52.270;10.334;2022-11-10T11:50:13;8.77;;;2.30;;
26474;SDS011;14161;52.270;10.334;2022-11-10T11:56:16;9.52;;;1.80;;
26474;SDS011;14161;52.270;10.334;2022-11-10T12:05:22;10.48;;;2.63;;
26474;SDS011;14161;52.270;10.334;2022-11-10T12:08:50;5.68;;;1.45;;
26474;SDS011;14161;52.270;10.334;2022-11-10T12:12:11;4.78;;;1.60;;
26474;SDS011;14161;52.270;10.334;2022-11-10T12:24:14;6.25;;;1.55;;
26474;SDS011;14161;52.270;10.334;2022-11-10T12:27:11;12.00;;;2.13;;
26474;SDS011;14161;52.270;10.334;2022-11-10T12:30:02;7.28;;;1.58;;
26474;SDS011;14161;52.270;10.334;2022-11-10T12:32:51;10.43;;;1.77;;
26474;SDS011;14161;52.270;10.334;2022-11-10T12:35:38;8.10;;;1.75;;
26474;SDS011;14161;52.270;10.334;2022-11-10T12:38:26;9.07;;;1.90;;
26474;SDS011;14161;52.270;10.334;2022-11-10T12:41:19;10.55;;;2.00;;
26474;SDS011;14161;52.270;10.334;2022-11-10T12:50:03;10.07;;;2.03;;
26474;SDS011;14161;52.270;10.334;2022-11-10T12:56:07;7.47;;;1.92;;
26474;SDS011;14161;52.270;10.334;2022-11-10T12:59:26;6.72;;;1.42;;
26474;SDS011;14161;52.270;10.334;2022-11-10T13:02:12;7.57;;;2.10;;
26474;SDS011;14161;52.270;10.334;2022-11-10T13:13:55;8.20;;;1.95;;
26474;SDS011;14161;52.270;10.334;2022-11-10T13:19:46;8.40;;;1.83;;
26474;SDS011;14161;52.270;10.334;2022-11-10T13:22:36;5.88;;;1.63;;
26474;SDS011;14161;52.270;10.334;2022-11-10T13:37:01;8.02;;;1.60;;
26474;SDS011;14161;52.270;10.334;2022-11-10T13:39:45;4.97;;;1.50;;
26474;SDS011;14161;52.270;10.334;2022-11-10T13:42:29;5.47;;;1.42;;
26474;SDS011;14161;52.270;10.334;2022-11-10T13:45:30;7.57;;;1.43;;
26474;SDS011;14161;52.270;10.334;2022-11-10T13:48:23;4.95;;;1.33;;
26474;SDS011;14161;52.270;10.334;2022-11-10T13:51:24;4.88;;;1.55;;
26474;SDS011;14161;52.270;10.334;2022-11-10T13:54:19;5.13;;;1.40;;
26474;SDS011;14161;52.270;10.334;2022-11-10T14:00:40;10.70;;;1.95;;
26474;SDS011;14161;52.270;10.334;2022-11-10T14:12:20;7.18;;;1.60;;
26474;SDS011;14161;52.270;10.334;2022-11-10T14:15:14;7.13;;;1.35;;
26474;SDS011;14161;52.270;10.334;2022-11-10T14:18:00;4.88;;;1.42;;
26474;SDS011;14161;52.270;10.334;2022-11-10T14:20:46;7.72;;;1.30;;
26474;SDS011;14161;52.270;10.334;2022-11-10T14:23:48;5.15;;;1.27;;
26474;SDS011;14161;52.270;10.334;2022-11-10T14:26:43;4.75;;;1.60;;
26474;SDS011;14161;52.270;10.334;2022-11-10T14:32:21;4.88;;;1.60;;
26474;SDS011;14161;52.270;10.334;2022-11-10T14:35:21;7.38;;;1.88;;
26474;SDS011;14161;52.270;10.334;2022-11-10T14:38:13;8.93;;;2.05;;
26474;SDS011;14161;52.270;10.334;2022-11-10T14:41:05;7.07;;;1.65;;
26474;SDS011;14161;52.270;10.334;2022-11-10T14:44:00;6.22;;;1.42;;
26474;SDS011;14161;52.270;10.334;2022-11-10T14:46:45;4.80;;;1.65;;
26474;SDS011;14161;52.270;10.334;2022-11-10T14:49:29;4.93;;;1.30;;
26474;SDS011;14161;52.270;10.334;2022-11-10T14:52:14;6.40;;;1.65;;
26474;SDS011;14161;52.270;10.334;2022-11-10T14:54:58;4.03;;;1.30;;
26474;SDS011;14161;52.270;10.334;2022-11-10T14:57:53;3.95;;;1.48;;
26474;SDS011;14161;52.270;10.334;2022-11-10T15:00:39;4.53;;;1.17;;
26474;SDS011;14161;52.270;10.334;2022-11-10T15:03:29;6.20;;;1.50;;
26474;SDS011;14161;52.270;10.334;2022-11-10T15:06:19;3.58;;;1.52;;
26474;SDS011;14161;52.270;10.334;2022-11-10T15:09:14;6.18;;;2.13;;
26474;SDS011;14161;52.270;10.334;2022-11-10T15:12:06;6.40;;;1.80;;
26474;SDS011;14161;52.270;10.334;2022-11-10T15:14:57;5.90;;;1.75;;
26474;SDS011;14161;52.270;10.334;2022-11-10T15:17:49;7.32;;;2.25;;
26474;SDS011;14161;52.270;10.334;2022-11-10T15:20:35;4.82;;;2.13;;
26474;SDS011;14161;52.270;10.334;2022-11-10T15:23:21;5.15;;;1.85;;
26474;SDS011;14161;52.270;10.334;2022-11-10T15:26:16;3.15;;;1.17;;
26474;SDS011;14161;52.270;10.334;2022-11-10T15:29:30;7.18;;;1.48;;
26474;SDS011;14161;52.270;10.334;2022-11-10T15:36:11;4.40;;;1.25;;
26474;SDS011;14161;52.270;10.334;2022-11-10T15:39:03;5.65;;;1.30;;
26474;SDS011;14161;52.270;10.334;2022-11-10T15:41:55;5.00;;;1.63;;
26474;SDS011;14161;52.270;10.334;2022-11-10T15:44:59;2.80;;;1.13;;
26474;SDS011;14161;52.270;10.334;2022-11-10T15:48:02;5.75;;;1.48;;
26474;SDS011;14161;52.270;10.334;2022-11-10T15:51:32;7.78;;;1.45;;
26474;SDS011;14161;52.270;10.334;2022-11-10T15:54:30;4.78;;;1.27;;
26474;SDS011;14161;52.270;10.334;2022-11-10T15:57:35;6.00;;;1.30;;
26474;SDS011;14161;52.270;10.334;2022-11-10T16:06:12;5.18;;;1.40;;
26474;SDS011;14161;52.270;10.334;2022-11-10T16:09:15;2.33;;;1.02;;
26474;SDS011;14161;52.270;10.334;2022-11-10T16:12:19;8.07;;;1.40;;
26474;SDS011;14161;52.270;10.334;2022-11-10T16:15:14;5.43;;;1.25;;
26474;SDS011;14161;52.270;10.334;2022-11-10T16:18:14;8.68;;;1.80;;
26474;SDS011;14161;52.270;10.334;2022-11-10T16:21:13;3.47;;;1.15;;
26474;SDS011;14161;52.270;10.334;2022-11-10T16:30:18;6.72;;;2.00;;
26474;SDS011;14161;52.270;10.334;2022-11-10T16:33:36;6.60;;;1.73;;
26474;SDS011;14161;52.270;10.334;2022-11-10T16:36:22;7.50;;;1.63;;
26474;SDS011;14161;52.270;10.334;2022-11-10T16:42:56;6.30;;;1.58;;
26474;SDS011;14161;52.270;10.334;2022-11-10T16:46:20;5.97;;;1.65;;
26474;SDS011;14161;52.270;10.334;2022-11-10T16:52:23;5.20;;;1.63;;
26474;SDS011;14161;52.270;10.334;2022-11-10T16:55:38;5.03;;;1.30;;
26474;SDS011;14161;52.270;10.334;2022-11-10T16:58:28;6.30;;;1.38;;
26474;SDS011;14161;52.270;10.334;2022-11-10T17:01:36;3.17;;;1.08;;
26474;SDS011;14161;52.270;10.334;2022-11-10T17:05:03;5.00;;;1.40;;
26474;SDS011;14161;52.270;10.334;2022-11-10T17:08:18;4.82;;;1.20;;
26474;SDS011;14161;52.270;10.334;2022-11-10T17:11:47;7.07;;;1.65;;
26474;SDS011;14161;52.270;10.334;2022-11-10T17:14:44;7.32;;;1.98;;
26474;SDS011;14161;52.270;10.334;2022-11-10T17:17:52;7.60;;;1.80;;
26474;SDS011;14161;52.270;10.334;2022-11-10T17:24:42;4.78;;;1.33;;
26474;SDS011;14161;52.270;10.334;2022-11-10T17:32:14;6.60;;;2.00;;
26474;SDS011;14161;52.270;10.334;2022-11-10T17:35:32;3.63;;;1.15;;
26474;SDS011;14161;52.270;10.334;2022-11-10T17:42:47;5.55;;;1.92;;
26474;SDS011;14161;52.270;10.334;2022-11-10T18:02:08;8.57;;;1.95;;
26474;SDS011;14161;52.270;10.334;2022-11-10T18:05:00;3.47;;;1.35;;
26474;SDS011;14161;52.270;10.334;2022-11-10T18:07:51;4.90;;;1.58;;
26474;SDS011;14161;52.270;10.334;2022-11-10T18:10:47;7.68;;;1.65;;
26474;SDS011;14161;52.270;10.334;2022-11-10T18:13:50;5.82;;;1.33;;
26474;SDS011;14161;52.270;10.334;2022-11-10T18:16:49;10.82;;;2.03;;
26474;SDS011;14161;52.270;10.334;2022-11-10T18:20:03;5.93;;;1.83;;
26474;SDS011;14161;52.270;10.334;2022-11-10T18:22:53;5.32;;;1.55;;
26474;SDS011;14161;52.270;10.334;2022-11-10T18:25:40;4.25;;;1.35;;
26474;SDS011;14161;52.270;10.334;2022-11-10T18:28:36;2.00;;;1.23;;
26474;SDS011;14161;52.270;10.334;2022-11-10T18:31:48;4.13;;;1.70;;
26474;SDS011;14161;52.270;10.334;2022-11-10T18:37:52;2.92;;;1.40;;
26474;SDS011;14161;52.270;10.334;2022-11-10T18:41:27;7.20;;;1.88;;
26474;SDS011;14161;52.270;10.334;2022-11-10T18:45:46;6.15;;;1.40;;
26474;SDS011;14161;52.270;10.334;2022-11-10T18:48:52;5.93;;;1.50;;
26474;SDS011;14161;52.270;10.334;2022-11-10T18:59:06;5.22;;;1.98;;
26474;SDS011;14161;52.270;10.334;2022-11-10T19:02:37;5.65;;;1.70;;
26474;SDS011;14161;52.270;10.334;2022-11-10T19:05:43;7.50;;;2.05;;
26474;SDS011;14161;52.270;10.334;2022-11-10T19:08:39;10.27;;;2.55;;
26474;SDS011;14161;52.270;10.334;2022-11-10T19:12:01;7.72;;;1.95;;
26474;SDS011;14161;52.270;10.334;2022-11-10T19:26:39;5.93;;;1.70;;
26474;SDS011;14161;52.270;10.334;2022-11-10T19:33:20;3.67;;;1.50;;
26474;SDS011;14161;52.270;10.334;2022-11-10T19:36:13;5.72;;;1.80;;
26474;SDS011;14161;52.270;10.334;2022-11-10T19:43:11;4.07;;;1.42;;
26474;SDS011;14161;52.270;10.334;2022-11-10T19:49:57;4.82;;;1.58;;